Aérodrome :
LOGIN :

S'inscrire | Disclaimer

   EN    FR    IT 

 










Légende :    VFR   VFR Marginal   IFR   IFR Intensif   IFR Très Intensif
Visi : 
Plafond : 
>= 8 km
>= 3000ft
5 à 8 km
1000 à 3000 ft
1500m à 5 km
500 à 1000 ft
800 à 1500m
200 à 500 ft
< 800m
< 200 ft
Symboles :   Orages  Brouillard  Fortes neiges  Fortes précipitations  Vent > 20 kt
SIGMETs :   Divers  Orages  Givrage  Turbulence  Onde Orograph.  Cendres Volcan.






- Altitude de l'aérodrome : 160 ft
- Code IATA : FMO


EDDG - Münster Osnabrück Int.

DERNIER METAR :
  • 211320Z 11003KT 030V160 8000 BKN009 06/04 Q1008 BECMG BKN010

METARs EXPIRÉS :
  • 211250Z VRB02KT 8000 BKN009 06/04 Q1008 BECMG BKN010
  • 211220Z VRB03KT 8000 BKN009 BKN037 05/03 Q1009 NOSIG
  • 211150Z 09003KT 010V140 8000 SCT007 BKN038 05/04 Q1009 TEMPO BKN007
  • 211120Z 09004KT 020V160 7000 SCT007 BKN039 05/03 Q1009 TEMPO BKN007
  • 211050Z VRB04KT 7000 FEW007 BKN039 05/04 Q1010 NOSIG

TAF COR TAF EDDG
Valide du 21 à 12h jusqu'au 22 à 12h UTC


211155Z 2112/2212 11004KT 9000 BKN008
TEMPO 2112/2115 BKN020
TEMPO 2117/2207 4000 BR



MET'MAP, la Météo Aéronautique d'un coup d'oeil ! - Copyright ORBIFLY Décembre 2007 - Disclaimer

ORBIFLY MET'MAP TEAM :

Programmation & Développement : Alexandra Zaïnal
Conception & Développement : Baudouin d'Aumeries
Co-Programmation & Développement : Marc-Olivier Méhu
Soutien technique & logistique : Manuel Goepfert

Contact : metmap@orbifly.com




SOURCES & CREDITS :

   NOAA